sensor_id;sensor_type;location;lat;lon;timestamp;P1;durP1;ratioP1;P2;durP2;ratioP2
76989;SDS011;65924;47.250;11.332;2024-02-14T00:00:23;5.60;;;2.50;;
76989;SDS011;65924;47.250;11.332;2024-02-14T00:01:26;5.50;;;2.30;;
76989;SDS011;65924;47.250;11.332;2024-02-14T00:01:56;5.60;;;2.80;;
76989;SDS011;65924;47.250;11.332;2024-02-14T00:02:27;5.40;;;2.60;;
76989;SDS011;65924;47.250;11.332;2024-02-14T00:02:58;5.30;;;2.60;;
76989;SDS011;65924;47.250;11.332;2024-02-14T00:03:28;5.70;;;2.40;;
76989;SDS011;65924;47.250;11.332;2024-02-14T00:03:59;4.80;;;2.30;;
76989;SDS011;65924;47.250;11.332;2024-02-14T00:04:29;5.70;;;2.20;;
76989;SDS011;65924;47.250;11.332;2024-02-14T00:05:00;5.80;;;2.40;;
76989;SDS011;65924;47.250;11.332;2024-02-14T00:05:31;5.40;;;2.00;;
76989;SDS011;65924;47.250;11.332;2024-02-14T00:06:03;6.80;;;2.80;;
76989;SDS011;65924;47.250;11.332;2024-02-14T00:06:35;5.30;;;2.50;;
76989;SDS011;65924;47.250;11.332;2024-02-14T00:07:06;5.30;;;2.80;;
76989;SDS011;65924;47.250;11.332;2024-02-14T00:07:37;6.50;;;2.70;;
76989;SDS011;65924;47.250;11.332;2024-02-14T00:08:09;5.30;;;2.60;;
76989;SDS011;65924;47.250;11.332;2024-02-14T00:08:41;5.60;;;2.50;;
76989;SDS011;65924;47.250;11.332;2024-02-14T00:09:12;6.40;;;2.60;;
76989;SDS011;65924;47.250;11.332;2024-02-14T00:09:42;5.60;;;3.00;;
76989;SDS011;65924;47.250;11.332;2024-02-14T00:10:13;6.70;;;2.70;;
76989;SDS011;65924;47.250;11.332;2024-02-14T00:10:43;6.40;;;2.70;;
76989;SDS011;65924;47.250;11.332;2024-02-14T00:11:15;6.80;;;2.90;;
76989;SDS011;65924;47.250;11.332;2024-02-14T00:11:47;5.60;;;2.70;;
76989;SDS011;65924;47.250;11.332;2024-02-14T00:12:18;6.70;;;2.50;;
76989;SDS011;65924;47.250;11.332;2024-02-14T00:12:48;5.90;;;3.00;;
76989;SDS011;65924;47.250;11.332;2024-02-14T00:13:19;5.90;;;2.80;;
76989;SDS011;65924;47.250;11.332;2024-02-14T00:13:50;6.60;;;2.70;;
76989;SDS011;65924;47.250;11.332;2024-02-14T00:14:20;8.30;;;4.10;;
76989;SDS011;65924;47.250;11.332;2024-02-14T00:14:51;10.00;;;5.80;;
76989;SDS011;65924;47.250;11.332;2024-02-14T00:15:22;11.80;;;5.70;;
76989;SDS011;65924;47.250;11.332;2024-02-14T00:15:54;10.90;;;5.30;;
76989;SDS011;65924;47.250;11.332;2024-02-14T00:16:27;7.70;;;3.80;;
76989;SDS011;65924;47.250;11.332;2024-02-14T00:17:01;7.40;;;3.50;;
76989;SDS011;65924;47.250;11.332;2024-02-14T00:17:32;7.20;;;3.20;;
76989;SDS011;65924;47.250;11.332;2024-02-14T00:18:04;6.50;;;3.10;;
76989;SDS011;65924;47.250;11.332;2024-02-14T00:18:35;7.10;;;3.70;;
76989;SDS011;65924;47.250;11.332;2024-02-14T00:19:05;6.80;;;2.80;;
76989;SDS011;65924;47.250;11.332;2024-02-14T00:19:36;6.30;;;3.00;;
76989;SDS011;65924;47.250;11.332;2024-02-14T00:20:07;5.80;;;2.70;;
76989;SDS011;65924;47.250;11.332;2024-02-14T00:20:40;5.50;;;2.60;;
76989;SDS011;65924;47.250;11.332;2024-02-14T00:21:11;6.00;;;2.80;;
76989;SDS011;65924;47.250;11.332;2024-02-14T00:21:45;5.90;;;2.10;;
76989;SDS011;65924;47.250;11.332;2024-02-14T00:22:15;5.20;;;2.60;;
76989;SDS011;65924;47.250;11.332;2024-02-14T00:22:46;7.90;;;3.50;;
76989;SDS011;65924;47.250;11.332;2024-02-14T00:23:17;7.90;;;3.50;;
76989;SDS011;65924;47.250;11.332;2024-02-14T00:23:47;6.80;;;3.20;;
76989;SDS011;65924;47.250;11.332;2024-02-14T00:24:18;7.50;;;3.60;;
76989;SDS011;65924;47.250;11.332;2024-02-14T00:24:49;6.90;;;2.80;;
76989;SDS011;65924;47.250;11.332;2024-02-14T00:25:20;6.30;;;2.80;;
76989;SDS011;65924;47.250;11.332;2024-02-14T00:25:50;5.90;;;2.30;;
76989;SDS011;65924;47.250;11.332;2024-02-14T00:26:21;5.10;;;2.50;;
76989;SDS011;65924;47.250;11.332;2024-02-14T00:26:52;4.60;;;2.20;;
76989;SDS011;65924;47.250;11.332;2024-02-14T00:27:23;6.50;;;2.80;;
76989;SDS011;65924;47.250;11.332;2024-02-14T00:27:55;4.90;;;2.30;;
76989;SDS011;65924;47.250;11.332;2024-02-14T00:28:25;5.50;;;2.80;;
76989;SDS011;65924;47.250;11.332;2024-02-14T00:28:57;6.10;;;2.90;;
76989;SDS011;65924;47.250;11.332;2024-02-14T00:29:28;6.40;;;3.00;;
76989;SDS011;65924;47.250;11.332;2024-02-14T00:30:04;6.60;;;3.10;;
76989;SDS011;65924;47.250;11.332;2024-02-14T00:30:35;7.40;;;3.20;;
76989;SDS011;65924;47.250;11.332;2024-02-14T00:31:06;7.80;;;3.60;;
76989;SDS011;65924;47.250;11.332;2024-02-14T00:31:37;8.60;;;3.70;;
76989;SDS011;65924;47.250;11.332;2024-02-14T00:32:07;8.70;;;4.40;;
76989;SDS011;65924;47.250;11.332;2024-02-14T00:32:38;7.00;;;4.20;;
76989;SDS011;65924;47.250;11.332;2024-02-14T00:33:08;9.00;;;3.90;;
76989;SDS011;65924;47.250;11.332;2024-02-14T00:33:39;8.10;;;4.20;;
76989;SDS011;65924;47.250;11.332;2024-02-14T00:34:09;8.90;;;3.70;;
76989;SDS011;65924;47.250;11.332;2024-02-14T00:34:41;8.50;;;3.90;;
76989;SDS011;65924;47.250;11.332;2024-02-14T00:35:12;9.10;;;3.90;;
76989;SDS011;65924;47.250;11.332;2024-02-14T00:35:42;7.20;;;3.50;;
76989;SDS011;65924;47.250;11.332;2024-02-14T00:36:13;6.10;;;3.10;;
76989;SDS011;65924;47.250;11.332;2024-02-14T00:36:44;6.00;;;3.10;;
76989;SDS011;65924;47.250;11.332;2024-02-14T00:37:14;9.30;;;3.10;;
76989;SDS011;65924;47.250;11.332;2024-02-14T00:37:45;7.50;;;2.70;;
76989;SDS011;65924;47.250;11.332;2024-02-14T00:38:15;5.40;;;2.70;;
76989;SDS011;65924;47.250;11.332;2024-02-14T00:38:46;5.30;;;2.60;;
76989;SDS011;65924;47.250;11.332;2024-02-14T00:39:17;6.10;;;2.90;;
76989;SDS011;65924;47.250;11.332;2024-02-14T00:39:47;5.40;;;2.20;;
76989;SDS011;65924;47.250;11.332;2024-02-14T00:40:22;5.30;;;2.60;;
76989;SDS011;65924;47.250;11.332;2024-02-14T00:40:54;6.30;;;2.80;;
76989;SDS011;65924;47.250;11.332;2024-02-14T00:41:24;6.30;;;2.30;;
76989;SDS011;65924;47.250;11.332;2024-02-14T00:41:59;4.80;;;2.30;;
76989;SDS011;65924;47.250;11.332;2024-02-14T00:42:30;4.80;;;1.70;;
76989;SDS011;65924;47.250;11.332;2024-02-14T00:43:01;5.70;;;2.40;;
76989;SDS011;65924;47.250;11.332;2024-02-14T00:43:32;4.60;;;2.00;;
76989;SDS011;65924;47.250;11.332;2024-02-14T00:44:03;4.50;;;1.80;;
76989;SDS011;65924;47.250;11.332;2024-02-14T00:44:34;5.40;;;1.90;;
76989;SDS011;65924;47.250;11.332;2024-02-14T00:45:06;3.20;;;1.50;;
76989;SDS011;65924;47.250;11.332;2024-02-14T00:45:40;4.60;;;2.10;;
76989;SDS011;65924;47.250;11.332;2024-02-14T00:46:15;4.00;;;1.80;;
76989;SDS011;65924;47.250;11.332;2024-02-14T00:46:48;4.30;;;2.20;;
76989;SDS011;65924;47.250;11.332;2024-02-14T00:47:18;4.50;;;1.50;;
76989;SDS011;65924;47.250;11.332;2024-02-14T00:47:49;3.80;;;1.30;;
76989;SDS011;65924;47.250;11.332;2024-02-14T00:48:20;4.90;;;1.60;;
76989;SDS011;65924;47.250;11.332;2024-02-14T00:48:50;3.70;;;1.40;;
76989;SDS011;65924;47.250;11.332;2024-02-14T00:49:21;3.80;;;1.50;;
76989;SDS011;65924;47.250;11.332;2024-02-14T00:49:51;4.70;;;1.60;;
76989;SDS011;65924;47.250;11.332;2024-02-14T00:50:22;3.90;;;1.90;;
76989;SDS011;65924;47.250;11.332;2024-02-14T00:50:53;5.90;;;1.70;;
76989;SDS011;65924;47.250;11.332;2024-02-14T00:51:24;4.00;;;1.70;;
76989;SDS011;65924;47.250;11.332;2024-02-14T00:51:55;3.90;;;1.80;;
76989;SDS011;65924;47.250;11.332;2024-02-14T00:52:26;6.20;;;1.90;;
76989;SDS011;65924;47.250;11.332;2024-02-14T00:52:57;4.80;;;2.10;;
76989;SDS011;65924;47.250;11.332;2024-02-14T00:53:27;4.00;;;1.90;;
76989;SDS011;65924;47.250;11.332;2024-02-14T00:53:58;6.60;;;2.20;;
76989;SDS011;65924;47.250;11.332;2024-02-14T00:54:29;4.60;;;2.00;;
76989;SDS011;65924;47.250;11.332;2024-02-14T00:54:59;3.90;;;2.00;;
76989;SDS011;65924;47.250;11.332;2024-02-14T00:55:33;6.30;;;2.70;;
76989;SDS011;65924;47.250;11.332;2024-02-14T00:56:04;6.20;;;2.80;;
76989;SDS011;65924;47.250;11.332;2024-02-14T00:56:34;5.60;;;2.40;;
76989;SDS011;65924;47.250;11.332;2024-02-14T00:57:05;5.70;;;1.90;;
76989;SDS011;65924;47.250;11.332;2024-02-14T00:57:36;3.90;;;1.50;;
76989;SDS011;65924;47.250;11.332;2024-02-14T00:58:07;4.70;;;2.20;;
76989;SDS011;65924;47.250;11.332;2024-02-14T00:58:40;5.40;;;2.00;;
76989;SDS011;65924;47.250;11.332;2024-02-14T00:59:11;4.70;;;2.20;;
76989;SDS011;65924;47.250;11.332;2024-02-14T00:59:44;4.90;;;1.60;;
76989;SDS011;65924;47.250;11.332;2024-02-14T01:00:16;3.90;;;1.60;;
76989;SDS011;65924;47.250;11.332;2024-02-14T01:00:47;3.70;;;1.40;;
76989;SDS011;65924;47.250;11.332;2024-02-14T01:01:18;3.50;;;1.40;;
76989;SDS011;65924;47.250;11.332;2024-02-14T01:01:48;4.20;;;2.00;;
76989;SDS011;65924;47.250;11.332;2024-02-14T01:02:19;4.20;;;1.70;;
76989;SDS011;65924;47.250;11.332;2024-02-14T01:03:21;4.80;;;1.90;;
76989;SDS011;65924;47.250;11.332;2024-02-14T01:03:52;7.40;;;4.30;;
76989;SDS011;65924;47.250;11.332;2024-02-14T01:04:23;7.00;;;4.50;;
76989;SDS011;65924;47.250;11.332;2024-02-14T01:04:53;5.30;;;2.40;;
76989;SDS011;65924;47.250;11.332;2024-02-14T01:05:24;6.30;;;2.70;;
76989;SDS011;65924;47.250;11.332;2024-02-14T01:05:55;5.20;;;2.40;;
76989;SDS011;65924;47.250;11.332;2024-02-14T01:06:26;5.00;;;2.30;;
76989;SDS011;65924;47.250;11.332;2024-02-14T01:06:57;4.20;;;1.90;;
76989;SDS011;65924;47.250;11.332;2024-02-14T01:07:28;6.00;;;2.50;;
76989;SDS011;65924;47.250;11.332;2024-02-14T01:07:58;3.90;;;1.80;;
76989;SDS011;65924;47.250;11.332;2024-02-14T01:08:29;4.60;;;2.00;;
76989;SDS011;65924;47.250;11.332;2024-02-14T01:09:00;4.70;;;1.80;;
76989;SDS011;65924;47.250;11.332;2024-02-14T01:09:30;5.20;;;1.60;;
76989;SDS011;65924;47.250;11.332;2024-02-14T01:10:02;4.60;;;2.30;;
76989;SDS011;65924;47.250;11.332;2024-02-14T01:10:33;4.90;;;2.40;;
76989;SDS011;65924;47.250;11.332;2024-02-14T01:11:04;4.50;;;2.10;;
76989;SDS011;65924;47.250;11.332;2024-02-14T01:11:34;5.50;;;2.10;;
76989;SDS011;65924;47.250;11.332;2024-02-14T01:12:05;4.60;;;2.50;;
76989;SDS011;65924;47.250;11.332;2024-02-14T01:12:37;5.80;;;3.30;;
76989;SDS011;65924;47.250;11.332;2024-02-14T01:13:07;4.20;;;1.90;;
76989;SDS011;65924;47.250;11.332;2024-02-14T01:13:38;5.00;;;2.70;;
76989;SDS011;65924;47.250;11.332;2024-02-14T01:14:09;4.90;;;2.70;;
76989;SDS011;65924;47.250;11.332;2024-02-14T01:14:39;6.80;;;2.90;;
76989;SDS011;65924;47.250;11.332;2024-02-14T01:15:10;5.30;;;2.70;;
76989;SDS011;65924;47.250;11.332;2024-02-14T01:15:41;5.00;;;2.70;;
76989;SDS011;65924;47.250;11.332;2024-02-14T01:16:12;5.60;;;3.10;;
76989;SDS011;65924;47.250;11.332;2024-02-14T01:16:43;4.60;;;2.70;;
76989;SDS011;65924;47.250;11.332;2024-02-14T01:17:16;6.10;;;3.00;;
76989;SDS011;65924;47.250;11.332;2024-02-14T01:17:47;8.30;;;2.80;;
76989;SDS011;65924;47.250;11.332;2024-02-14T01:18:18;6.10;;;2.60;;
76989;SDS011;65924;47.250;11.332;2024-02-14T01:18:49;5.40;;;2.20;;
76989;SDS011;65924;47.250;11.332;2024-02-14T01:19:23;4.60;;;2.60;;
76989;SDS011;65924;47.250;11.332;2024-02-14T01:19:59;5.90;;;2.90;;
76989;SDS011;65924;47.250;11.332;2024-02-14T01:20:29;5.20;;;2.50;;
76989;SDS011;65924;47.250;11.332;2024-02-14T01:21:00;5.80;;;2.60;;
76989;SDS011;65924;47.250;11.332;2024-02-14T01:21:31;5.20;;;2.60;;
76989;SDS011;65924;47.250;11.332;2024-02-14T01:22:02;5.80;;;3.20;;
76989;SDS011;65924;47.250;11.332;2024-02-14T01:22:34;6.10;;;2.30;;
76989;SDS011;65924;47.250;11.332;2024-02-14T01:23:08;4.60;;;2.20;;
76989;SDS011;65924;47.250;11.332;2024-02-14T01:23:39;4.80;;;2.50;;
76989;SDS011;65924;47.250;11.332;2024-02-14T01:24:10;5.10;;;2.30;;
76989;SDS011;65924;47.250;11.332;2024-02-14T01:24:49;4.60;;;1.70;;
76989;SDS011;65924;47.250;11.332;2024-02-14T01:25:20;4.20;;;1.90;;
76989;SDS011;65924;47.250;11.332;2024-02-14T01:25:51;4.40;;;2.00;;
76989;SDS011;65924;47.250;11.332;2024-02-14T01:26:24;3.80;;;1.70;;
76989;SDS011;65924;47.250;11.332;2024-02-14T01:26:55;4.70;;;2.40;;
76989;SDS011;65924;47.250;11.332;2024-02-14T01:27:26;4.20;;;1.70;;
76989;SDS011;65924;47.250;11.332;2024-02-14T01:27:59;5.50;;;2.30;;
76989;SDS011;65924;47.250;11.332;2024-02-14T01:28:30;5.40;;;2.10;;
76989;SDS011;65924;47.250;11.332;2024-02-14T01:29:00;4.60;;;1.90;;
76989;SDS011;65924;47.250;11.332;2024-02-14T01:29:31;4.30;;;2.40;;
76989;SDS011;65924;47.250;11.332;2024-02-14T01:30:02;5.70;;;1.90;;
76989;SDS011;65924;47.250;11.332;2024-02-14T01:30:35;5.00;;;2.10;;
76989;SDS011;65924;47.250;11.332;2024-02-14T01:31:06;5.30;;;2.20;;
76989;SDS011;65924;47.250;11.332;2024-02-14T01:31:42;5.00;;;1.90;;
76989;SDS011;65924;47.250;11.332;2024-02-14T01:32:13;4.60;;;2.10;;
76989;SDS011;65924;47.250;11.332;2024-02-14T01:32:43;4.70;;;2.10;;
76989;SDS011;65924;47.250;11.332;2024-02-14T01:33:14;4.00;;;1.70;;
76989;SDS011;65924;47.250;11.332;2024-02-14T01:33:47;3.80;;;1.40;;
76989;SDS011;65924;47.250;11.332;2024-02-14T01:34:17;3.60;;;1.70;;
76989;SDS011;65924;47.250;11.332;2024-02-14T01:34:48;5.40;;;1.80;;
76989;SDS011;65924;47.250;11.332;2024-02-14T01:35:19;4.00;;;1.90;;
76989;SDS011;65924;47.250;11.332;2024-02-14T01:35:49;3.50;;;1.40;;
76989;SDS011;65924;47.250;11.332;2024-02-14T01:36:20;4.10;;;1.70;;
76989;SDS011;65924;47.250;11.332;2024-02-14T01:36:51;4.10;;;1.70;;
76989;SDS011;65924;47.250;11.332;2024-02-14T01:37:22;3.40;;;1.30;;
76989;SDS011;65924;47.250;11.332;2024-02-14T01:37:53;4.00;;;1.40;;
76989;SDS011;65924;47.250;11.332;2024-02-14T01:38:24;3.80;;;1.90;;
76989;SDS011;65924;47.250;11.332;2024-02-14T01:38:55;4.00;;;1.70;;
76989;SDS011;65924;47.250;11.332;2024-02-14T01:39:25;4.50;;;1.60;;
76989;SDS011;65924;47.250;11.332;2024-02-14T01:39:56;3.20;;;1.30;;
76989;SDS011;65924;47.250;11.332;2024-02-14T01:40:27;3.30;;;1.30;;
76989;SDS011;65924;47.250;11.332;2024-02-14T01:41:03;3.80;;;1.70;;
76989;SDS011;65924;47.250;11.332;2024-02-14T01:41:35;2.80;;;1.20;;
76989;SDS011;65924;47.250;11.332;2024-02-14T01:42:09;3.70;;;1.60;;
76989;SDS011;65924;47.250;11.332;2024-02-14T01:42:40;4.50;;;1.60;;
76989;SDS011;65924;47.250;11.332;2024-02-14T01:43:10;5.20;;;1.90;;
76989;SDS011;65924;47.250;11.332;2024-02-14T01:43:41;4.20;;;1.70;;
76989;SDS011;65924;47.250;11.332;2024-02-14T01:44:12;3.90;;;1.60;;
76989;SDS011;65924;47.250;11.332;2024-02-14T01:44:46;4.80;;;1.80;;
76989;SDS011;65924;47.250;11.332;2024-02-14T01:45:17;4.20;;;2.30;;
76989;SDS011;65924;47.250;11.332;2024-02-14T01:45:48;3.90;;;2.00;;
76989;SDS011;65924;47.250;11.332;2024-02-14T01:46:19;3.60;;;1.40;;
76989;SDS011;65924;47.250;11.332;2024-02-14T01:46:52;3.80;;;1.60;;
76989;SDS011;65924;47.250;11.332;2024-02-14T01:47:24;3.60;;;1.80;;
76989;SDS011;65924;47.250;11.332;2024-02-14T01:47:54;3.60;;;1.50;;
76989;SDS011;65924;47.250;11.332;2024-02-14T01:48:26;3.90;;;2.10;;
76989;SDS011;65924;47.250;11.332;2024-02-14T01:48:57;4.10;;;1.90;;
76989;SDS011;65924;47.250;11.332;2024-02-14T01:49:30;3.80;;;1.70;;
76989;SDS011;65924;47.250;11.332;2024-02-14T01:50:01;5.00;;;1.90;;
76989;SDS011;65924;47.250;11.332;2024-02-14T01:50:34;3.70;;;1.80;;
76989;SDS011;65924;47.250;11.332;2024-02-14T01:51:05;4.00;;;1.90;;
76989;SDS011;65924;47.250;11.332;2024-02-14T01:51:39;3.80;;;1.60;;
76989;SDS011;65924;47.250;11.332;2024-02-14T01:52:12;4.20;;;1.60;;
76989;SDS011;65924;47.250;11.332;2024-02-14T01:52:43;4.20;;;1.80;;
76989;SDS011;65924;47.250;11.332;2024-02-14T01:53:15;3.60;;;2.00;;
76989;SDS011;65924;47.250;11.332;2024-02-14T01:53:46;3.50;;;1.40;;
76989;SDS011;65924;47.250;11.332;2024-02-14T01:54:17;3.70;;;1.60;;
76989;SDS011;65924;47.250;11.332;2024-02-14T01:54:48;4.30;;;1.60;;
76989;SDS011;65924;47.250;11.332;2024-02-14T01:55:22;4.20;;;1.80;;
76989;SDS011;65924;47.250;11.332;2024-02-14T01:55:53;3.70;;;1.40;;
76989;SDS011;65924;47.250;11.332;2024-02-14T01:56:32;4.40;;;1.70;;
76989;SDS011;65924;47.250;11.332;2024-02-14T01:57:03;4.50;;;1.80;;
76989;SDS011;65924;47.250;11.332;2024-02-14T01:57:36;4.70;;;1.40;;
76989;SDS011;65924;47.250;11.332;2024-02-14T01:58:09;4.10;;;1.70;;
76989;SDS011;65924;47.250;11.332;2024-02-14T01:58:40;3.70;;;1.60;;
76989;SDS011;65924;47.250;11.332;2024-02-14T01:59:10;4.00;;;1.50;;
76989;SDS011;65924;47.250;11.332;2024-02-14T01:59:41;4.40;;;2.10;;
76989;SDS011;65924;47.250;11.332;2024-02-14T02:00:12;4.60;;;1.90;;
76989;SDS011;65924;47.250;11.332;2024-02-14T02:00:48;4.10;;;1.50;;
76989;SDS011;65924;47.250;11.332;2024-02-14T02:01:20;4.30;;;1.70;;
76989;SDS011;65924;47.250;11.332;2024-02-14T02:01:53;4.60;;;1.80;;
76989;SDS011;65924;47.250;11.332;2024-02-14T02:02:25;5.00;;;2.60;;
76989;SDS011;65924;47.250;11.332;2024-02-14T02:02:57;3.60;;;1.80;;
76989;SDS011;65924;47.250;11.332;2024-02-14T02:03:28;5.50;;;1.70;;
76989;SDS011;65924;47.250;11.332;2024-02-14T02:03:59;3.70;;;1.70;;
76989;SDS011;65924;47.250;11.332;2024-02-14T02:04:30;5.50;;;1.80;;
76989;SDS011;65924;47.250;11.332;2024-02-14T02:05:01;4.30;;;1.70;;
76989;SDS011;65924;47.250;11.332;2024-02-14T02:05:32;4.10;;;1.50;;
76989;SDS011;65924;47.250;11.332;2024-02-14T02:06:05;5.10;;;2.20;;
76989;SDS011;65924;47.250;11.332;2024-02-14T02:06:36;4.40;;;2.00;;
76989;SDS011;65924;47.250;11.332;2024-02-14T02:07:07;4.10;;;1.90;;
76989;SDS011;65924;47.250;11.332;2024-02-14T02:07:38;4.60;;;2.00;;
76989;SDS011;65924;47.250;11.332;2024-02-14T02:08:12;4.10;;;1.70;;
76989;SDS011;65924;47.250;11.332;2024-02-14T02:08:44;4.30;;;1.70;;
76989;SDS011;65924;47.250;11.332;2024-02-14T02:09:15;5.40;;;1.70;;
76989;SDS011;65924;47.250;11.332;2024-02-14T02:09:46;3.90;;;1.70;;
76989;SDS011;65924;47.250;11.332;2024-02-14T02:10:17;5.50;;;1.70;;
76989;SDS011;65924;47.250;11.332;2024-02-14T02:10:47;4.00;;;1.90;;
76989;SDS011;65924;47.250;11.332;2024-02-14T02:11:18;5.10;;;2.00;;
76989;SDS011;65924;47.250;11.332;2024-02-14T02:11:49;4.00;;;1.50;;
76989;SDS011;65924;47.250;11.332;2024-02-14T02:12:20;4.60;;;1.70;;
76989;SDS011;65924;47.250;11.332;2024-02-14T02:12:57;4.10;;;1.80;;
76989;SDS011;65924;47.250;11.332;2024-02-14T02:13:31;3.80;;;1.70;;
76989;SDS011;65924;47.250;11.332;2024-02-14T02:14:01;4.20;;;2.00;;
76989;SDS011;65924;47.250;11.332;2024-02-14T02:14:33;5.30;;;2.00;;
76989;SDS011;65924;47.250;11.332;2024-02-14T02:15:05;3.50;;;1.90;;
76989;SDS011;65924;47.250;11.332;2024-02-14T02:15:37;4.30;;;1.70;;
76989;SDS011;65924;47.250;11.332;2024-02-14T02:16:08;3.90;;;1.80;;
76989;SDS011;65924;47.250;11.332;2024-02-14T02:16:39;4.50;;;1.70;;
76989;SDS011;65924;47.250;11.332;2024-02-14T02:17:09;5.50;;;1.50;;
76989;SDS011;65924;47.250;11.332;2024-02-14T02:18:12;3.80;;;1.60;;
76989;SDS011;65924;47.250;11.332;2024-02-14T02:18:43;5.00;;;2.70;;
76989;SDS011;65924;47.250;11.332;2024-02-14T02:19:14;3.70;;;1.60;;
76989;SDS011;65924;47.250;11.332;2024-02-14T02:19:45;4.80;;;2.00;;
76989;SDS011;65924;47.250;11.332;2024-02-14T02:20:16;4.40;;;1.80;;
76989;SDS011;65924;47.250;11.332;2024-02-14T02:20:47;4.00;;;1.80;;
76989;SDS011;65924;47.250;11.332;2024-02-14T02:21:18;4.00;;;1.60;;
76989;SDS011;65924;47.250;11.332;2024-02-14T02:21:53;5.20;;;2.00;;
76989;SDS011;65924;47.250;11.332;2024-02-14T02:22:24;4.60;;;1.90;;
76989;SDS011;65924;47.250;11.332;2024-02-14T02:22:55;3.30;;;1.40;;
76989;SDS011;65924;47.250;11.332;2024-02-14T02:23:25;4.00;;;1.80;;
76989;SDS011;65924;47.250;11.332;2024-02-14T02:23:56;4.20;;;2.10;;
76989;SDS011;65924;47.250;11.332;2024-02-14T02:24:26;4.80;;;1.80;;
76989;SDS011;65924;47.250;11.332;2024-02-14T02:24:57;3.60;;;1.70;;
76989;SDS011;65924;47.250;11.332;2024-02-14T02:25:28;4.10;;;2.20;;
76989;SDS011;65924;47.250;11.332;2024-02-14T02:25:58;4.40;;;1.80;;
76989;SDS011;65924;47.250;11.332;2024-02-14T02:26:29;5.00;;;1.90;;
76989;SDS011;65924;47.250;11.332;2024-02-14T02:27:00;4.20;;;2.00;;
76989;SDS011;65924;47.250;11.332;2024-02-14T02:27:33;4.30;;;1.70;;
76989;SDS011;65924;47.250;11.332;2024-02-14T02:28:07;4.30;;;1.80;;
76989;SDS011;65924;47.250;11.332;2024-02-14T02:28:39;5.80;;;2.00;;
76989;SDS011;65924;47.250;11.332;2024-02-14T02:29:10;4.70;;;1.60;;
76989;SDS011;65924;47.250;11.332;2024-02-14T02:29:41;5.00;;;2.20;;
76989;SDS011;65924;47.250;11.332;2024-02-14T02:30:12;5.40;;;2.40;;
76989;SDS011;65924;47.250;11.332;2024-02-14T02:30:43;4.90;;;2.40;;
76989;SDS011;65924;47.250;11.332;2024-02-14T02:31:16;5.30;;;2.40;;
76989;SDS011;65924;47.250;11.332;2024-02-14T02:31:47;4.50;;;2.00;;
76989;SDS011;65924;47.250;11.332;2024-02-14T02:32:18;5.40;;;1.90;;
76989;SDS011;65924;47.250;11.332;2024-02-14T02:32:48;5.10;;;2.10;;
76989;SDS011;65924;47.250;11.332;2024-02-14T02:33:21;4.00;;;1.70;;
76989;SDS011;65924;47.250;11.332;2024-02-14T02:33:52;4.70;;;1.70;;
76989;SDS011;65924;47.250;11.332;2024-02-14T02:34:23;4.20;;;1.80;;
76989;SDS011;65924;47.250;11.332;2024-02-14T02:34:53;4.40;;;2.10;;
76989;SDS011;65924;47.250;11.332;2024-02-14T02:35:28;4.60;;;1.80;;
76989;SDS011;65924;47.250;11.332;2024-02-14T02:36:00;6.30;;;2.40;;
76989;SDS011;65924;47.250;11.332;2024-02-14T02:36:30;3.80;;;1.80;;
76989;SDS011;65924;47.250;11.332;2024-02-14T02:37:02;6.90;;;3.00;;
76989;SDS011;65924;47.250;11.332;2024-02-14T02:37:33;6.20;;;2.60;;
76989;SDS011;65924;47.250;11.332;2024-02-14T02:38:04;6.30;;;3.20;;
76989;SDS011;65924;47.250;11.332;2024-02-14T02:38:35;9.00;;;4.40;;
76989;SDS011;65924;47.250;11.332;2024-02-14T02:39:06;13.00;;;6.10;;
76989;SDS011;65924;47.250;11.332;2024-02-14T02:39:40;11.30;;;5.00;;
76989;SDS011;65924;47.250;11.332;2024-02-14T02:40:11;6.10;;;2.80;;
76989;SDS011;65924;47.250;11.332;2024-02-14T02:40:43;5.00;;;2.40;;
76989;SDS011;65924;47.250;11.332;2024-02-14T02:41:14;4.70;;;2.10;;
76989;SDS011;65924;47.250;11.332;2024-02-14T02:41:45;4.80;;;2.30;;
76989;SDS011;65924;47.250;11.332;2024-02-14T02:42:18;5.20;;;2.30;;
76989;SDS011;65924;47.250;11.332;2024-02-14T02:42:49;3.90;;;1.90;;
76989;SDS011;65924;47.250;11.332;2024-02-14T02:43:21;4.70;;;2.10;;
76989;SDS011;65924;47.250;11.332;2024-02-14T02:43:52;4.00;;;1.80;;
76989;SDS011;65924;47.250;11.332;2024-02-14T02:44:24;4.50;;;1.80;;
76989;SDS011;65924;47.250;11.332;2024-02-14T02:44:55;5.80;;;1.90;;
76989;SDS011;65924;47.250;11.332;2024-02-14T02:45:26;4.50;;;1.80;;
76989;SDS011;65924;47.250;11.332;2024-02-14T02:45:56;4.20;;;2.00;;
76989;SDS011;65924;47.250;11.332;2024-02-14T02:46:28;5.20;;;1.80;;
76989;SDS011;65924;47.250;11.332;2024-02-14T02:47:31;3.70;;;1.60;;
76989;SDS011;65924;47.250;11.332;2024-02-14T02:48:05;4.20;;;1.70;;
76989;SDS011;65924;47.250;11.332;2024-02-14T02:48:37;5.10;;;1.60;;
76989;SDS011;65924;47.250;11.332;2024-02-14T02:49:08;5.30;;;2.20;;
76989;SDS011;65924;47.250;11.332;2024-02-14T02:49:38;3.90;;;1.50;;
76989;SDS011;65924;47.250;11.332;2024-02-14T02:50:09;3.60;;;1.70;;
76989;SDS011;65924;47.250;11.332;2024-02-14T02:50:40;4.50;;;1.50;;
76989;SDS011;65924;47.250;11.332;2024-02-14T02:51:10;4.40;;;1.50;;
76989;SDS011;65924;47.250;11.332;2024-02-14T02:51:41;5.20;;;1.20;;
76989;SDS011;65924;47.250;11.332;2024-02-14T02:52:12;4.10;;;1.30;;
76989;SDS011;65924;47.250;11.332;2024-02-14T02:52:43;3.70;;;1.60;;
76989;SDS011;65924;47.250;11.332;2024-02-14T02:53:13;6.80;;;3.30;;
76989;SDS011;65924;47.250;11.332;2024-02-14T02:53:45;10.00;;;4.40;;
76989;SDS011;65924;47.250;11.332;2024-02-14T02:54:18;9.70;;;4.30;;
76989;SDS011;65924;47.250;11.332;2024-02-14T02:54:48;9.60;;;4.40;;
76989;SDS011;65924;47.250;11.332;2024-02-14T02:55:19;10.10;;;4.50;;
76989;SDS011;65924;47.250;11.332;2024-02-14T02:55:50;10.30;;;4.90;;
76989;SDS011;65924;47.250;11.332;2024-02-14T02:56:21;9.60;;;4.70;;
76989;SDS011;65924;47.250;11.332;2024-02-14T02:56:52;9.70;;;4.30;;
76989;SDS011;65924;47.250;11.332;2024-02-14T02:57:23;9.80;;;4.80;;
76989;SDS011;65924;47.250;11.332;2024-02-14T02:57:53;10.50;;;4.80;;
76989;SDS011;65924;47.250;11.332;2024-02-14T02:58:25;12.00;;;5.10;;
76989;SDS011;65924;47.250;11.332;2024-02-14T02:58:56;10.80;;;4.90;;
76989;SDS011;65924;47.250;11.332;2024-02-14T02:59:27;10.90;;;4.90;;
76989;SDS011;65924;47.250;11.332;2024-02-14T02:59:59;10.90;;;4.80;;
76989;SDS011;65924;47.250;11.332;2024-02-14T03:00:30;8.60;;;4.10;;
76989;SDS011;65924;47.250;11.332;2024-02-14T03:01:01;8.40;;;4.40;;
76989;SDS011;65924;47.250;11.332;2024-02-14T03:01:35;9.00;;;4.10;;
76989;SDS011;65924;47.250;11.332;2024-02-14T03:02:06;7.10;;;3.10;;
76989;SDS011;65924;47.250;11.332;2024-02-14T03:02:39;8.40;;;3.60;;
76989;SDS011;65924;47.250;11.332;2024-02-14T03:03:14;7.60;;;3.40;;
76989;SDS011;65924;47.250;11.332;2024-02-14T03:03:46;8.80;;;3.60;;
76989;SDS011;65924;47.250;11.332;2024-02-14T03:04:16;9.00;;;3.60;;
76989;SDS011;65924;47.250;11.332;2024-02-14T03:04:47;8.00;;;3.90;;
76989;SDS011;65924;47.250;11.332;2024-02-14T03:05:18;8.50;;;3.50;;
76989;SDS011;65924;47.250;11.332;2024-02-14T03:05:48;7.50;;;3.30;;
76989;SDS011;65924;47.250;11.332;2024-02-14T03:06:19;8.30;;;3.80;;
76989;SDS011;65924;47.250;11.332;2024-02-14T03:06:50;6.90;;;3.60;;
76989;SDS011;65924;47.250;11.332;2024-02-14T03:07:22;7.20;;;3.20;;
76989;SDS011;65924;47.250;11.332;2024-02-14T03:07:53;7.80;;;3.40;;
76989;SDS011;65924;47.250;11.332;2024-02-14T03:08:26;6.60;;;3.20;;